Time;durP1;ratioP1;P1;durP2;ratioP2;P2;SDS_P1;SDS_P2;PMS_P1;PMS_P2;Temp;Humidity;BMP_temperature;BMP_pressure;BME280_temperature;BME280_humidity;BME280_pressure;Samples;Min_cycle;Max_cycle;Signal;HPM_P1;HPM_P2
2023/03/18 00:00:39;;;;;;;6.90;3.50;;;;;;;16.27;36.18;96993.06;5044700;28;20248;-72
2023/03/18 00:03:05;;;;;;;6.40;3.23;;;;;;;16.32;35.85;96989.88;5041429;28;20210;-71
2023/03/18 00:05:33;;;;;;;4.30;2.40;;;;;;;16.28;36.13;96989.41;5034768;28;20489;-71
2023/03/18 00:07:59;;;;;;;4.10;2.27;;;;;;;16.20;36.19;96989.56;5041376;28;20427;-74
2023/03/18 00:10:25;;;;;;;6.07;4.27;;;;;;;16.12;36.19;96985.25;5033372;28;20477;-73
2023/03/18 00:12:52;;;;;;;7.00;3.90;;;;;;;16.13;36.67;96984.25;5042515;28;20968;-71
2023/03/18 00:15:18;;;;;;;9.87;3.70;;;;;;;16.08;37.02;96982.19;5033888;28;20263;-71
2023/03/18 00:17:43;;;;;;;5.33;3.47;;;;;;;16.07;36.79;96982.34;5041943;28;20943;-71
2023/03/18 00:20:11;;;;;;;6.03;2.60;;;;;;;16.06;36.92;96984.19;5040839;28;20203;-71
2023/03/18 00:22:38;;;;;;;3.10;2.30;;;;;;;16.03;36.98;96992.50;5040877;28;20187;-70
2023/03/18 00:25:05;;;;;;;4.73;2.73;;;;;;;15.97;37.25;96988.81;5037083;28;20421;-71
2023/03/18 00:27:32;;;;;;;7.33;3.87;;;;;;;15.91;37.21;97001.97;5041232;28;21176;-70
2023/03/18 00:29:58;;;;;;;6.60;3.90;;;;;;;15.81;37.10;97005.72;5031146;28;21072;-70
2023/03/18 00:32:25;;;;;;;9.27;4.03;;;;;;;15.75;37.21;97005.66;5039729;28;20437;-70
2023/03/18 00:34:50;;;;;;;5.67;3.30;;;;;;;15.78;36.62;97010.59;5029277;28;20215;-70
2023/03/18 00:37:28;;;;;;;6.30;3.77;;;;;;;15.74;36.98;97012.78;5034833;28;20829;-73
2023/03/18 00:39:55;;;;;;;6.50;2.97;;;;;;;15.72;37.40;97021.91;5047218;28;20202;-72
2023/03/18 00:42:22;;;;;;;4.53;2.77;;;;;;;15.72;37.38;97021.91;5051262;28;20479;-71
2023/03/18 00:44:47;;;;;;;3.37;2.80;;;;;;;15.64;37.78;97017.56;5037909;28;20433;-71
2023/03/18 00:47:13;;;;;;;8.30;3.20;;;;;;;15.60;37.97;97024.25;5032659;28;20817;-71
2023/03/18 00:49:38;;;;;;;4.63;2.80;;;;;;;15.50;38.32;97017.41;5040083;28;20196;-71
2023/03/18 00:52:04;;;;;;;4.70;3.00;;;;;;;15.50;38.27;97022.72;5037571;28;20211;-72
2023/03/18 00:54:30;;;;;;;4.00;3.17;;;;;;;15.43;38.61;97024.47;5036722;28;20182;-70
2023/03/18 00:56:56;;;;;;;3.47;2.90;;;;;;;15.44;38.98;97028.75;5047887;28;20699;-70
2023/03/18 00:59:22;;;;;;;5.67;2.77;;;;;;;15.41;39.03;97029.13;5036380;28;20570;-70
2023/03/18 01:01:48;;;;;;;6.30;2.73;;;;;;;15.42;38.87;97028.13;5037366;28;20414;-73
2023/03/18 01:04:13;;;;;;;4.20;2.80;;;;;;;15.31;39.22;97020.69;5038582;28;20413;-71
2023/03/18 01:06:39;;;;;;;4.43;2.83;;;;;;;15.25;39.36;97027.53;5044583;28;20547;-72
2023/03/18 01:09:07;;;;;;;5.37;2.90;;;;;;;15.28;38.74;97018.41;5042117;28;21619;-69
2023/03/18 01:11:33;;;;;;;4.13;2.63;;;;;;;15.30;39.05;97029.63;5052008;28;20179;-70
2023/03/18 01:13:59;;;;;;;2.20;1.90;;;;;;;15.38;37.08;97026.03;5053645;28;20791;-71
2023/03/18 01:16:25;;;;;;;6.80;2.27;;;;;;;15.38;37.66;97029.50;5051712;28;20175;-70
2023/03/18 01:18:51;;;;;;;3.13;1.80;;;;;;;15.31;38.26;97023.34;5052403;28;20425;-71
2023/03/18 01:21:16;;;;;;;2.93;1.80;;;;;;;15.39;37.37;97027.69;5052285;28;20178;-72
2023/03/18 01:23:42;;;;;;;2.93;2.23;;;;;;;15.41;37.60;97026.47;5063923;28;20757;-72
2023/03/18 01:26:08;;;;;;;3.13;1.73;;;;;;;15.34;35.39;97025.59;5041500;28;20779;-71
2023/03/18 01:28:34;;;;;;;4.73;2.37;;;;;;;15.50;36.30;97025.34;5049160;28;20179;-71
2023/03/18 01:31:00;;;;;;;5.47;3.10;;;;;;;15.44;37.90;97020.84;5051078;28;20846;-72
2023/03/18 01:33:27;;;;;;;4.70;2.80;;;;;;;15.41;38.81;97015.13;5059115;28;20179;-73
2023/03/18 01:35:58;;;;;;;7.93;3.50;;;;;;;15.26;38.98;97018.63;5068852;28;20515;-72
2023/03/18 01:38:25;;;;;;;5.90;3.60;;;;;;;15.16;39.86;97012.81;5071394;28;20417;-71
2023/03/18 01:40:53;;;;;;;5.60;3.30;;;;;;;15.18;39.73;97005.53;5064846;28;20441;-70
2023/03/18 01:43:25;;;;;;;4.70;2.80;;;;;;;15.12;39.34;97001.78;5054968;28;20424;-71
2023/03/18 01:45:53;;;;;;;4.83;2.03;;;;;;;15.07;37.24;97001.56;5048630;28;20499;-70
2023/03/18 01:48:20;;;;;;;6.00;2.50;;;;;;;15.22;37.28;97008.63;5050772;28;20456;-71
2023/03/18 01:50:53;;;;;;;4.03;2.23;;;;;;;15.30;36.59;97014.59;5048136;28;20806;-71
2023/03/18 01:53:20;;;;;;;1.73;1.63;;;;;;;15.38;36.20;97013.66;5060330;28;20432;-70
2023/03/18 01:55:47;;;;;;;4.40;1.90;;;;;;;15.48;36.64;97008.06;5048575;28;20505;-72
2023/03/18 01:58:23;;;;;;;3.00;1.60;;;;;;;15.46;35.67;97008.25;5053507;28;20789;-69
2023/03/18 02:00:53;;;;;;;6.00;1.40;;;;;;;15.50;35.24;97013.97;5046365;28;20503;-70
2023/03/18 02:03:19;;;;;;;4.10;1.77;;;;;;;15.52;34.87;97004.84;5060278;28;20438;-72
2023/03/18 02:05:45;;;;;;;3.07;1.50;;;;;;;15.61;34.60;97005.56;5055250;28;20484;-72
2023/03/18 02:08:10;;;;;;;2.63;1.40;;;;;;;15.65;34.75;97009.47;5049928;28;20420;-72
2023/03/18 02:10:36;;;;;;;3.63;1.87;;;;;;;15.75;34.57;97001.19;5047298;28;20203;-72
2023/03/18 02:13:09;;;;;;;3.13;1.70;;;;;;;15.72;34.75;97000.75;5044691;28;20187;-70
2023/03/18 02:15:38;;;;;;;4.50;1.80;;;;;;;15.77;34.43;96999.19;5057792;28;20463;-70
2023/03/18 02:18:07;;;;;;;2.20;1.63;;;;;;;15.80;34.50;97000.66;5049272;28;21275;-71
2023/03/18 02:21:10;;;;;;;3.23;1.37;;;;;;;15.70;34.54;96998.31;5051574;28;20903;-71
2023/03/18 02:24:15;;;;;;;4.10;1.73;;;;;;;15.69;34.68;97017.81;5046276;28;20436;-73
2023/03/18 02:27:00;;;;;;;2.43;1.43;;;;;;;15.69;34.58;97017.81;5039654;28;20460;-71
2023/03/18 02:29:29;;;;;;;1.97;1.50;;;;;;;15.45;34.83;97011.91;5050479;28;20448;-71
2023/03/18 02:31:56;;;;;;;2.13;1.40;;;;;;;15.64;34.58;97009.63;5048216;28;20429;-71
2023/03/18 02:34:24;;;;;;;5.87;1.70;;;;;;;15.58;34.75;97003.28;5041956;28;20481;-73
2023/03/18 02:36:50;;;;;;;2.60;1.53;;;;;;;15.67;34.70;97009.25;5045667;28;20425;-72
2023/03/18 02:39:15;;;;;;;3.00;1.43;;;;;;;15.67;34.79;97014.53;5057011;28;20469;-70
2023/03/18 02:41:42;;;;;;;2.87;1.40;;;;;;;15.73;34.60;97012.97;5044070;28;20175;-71
2023/03/18 02:44:10;;;;;;;3.43;1.60;;;;;;;15.69;34.64;97022.28;5052890;28;20191;-71
2023/03/18 02:46:58;;;;;;;2.03;1.37;;;;;;;15.73;34.79;97018.25;5038666;28;20453;-70
2023/03/18 02:49:26;;;;;;;1.67;1.47;;;;;;;15.72;34.83;97017.44;5046663;28;20494;-71
2023/03/18 02:51:52;;;;;;;2.03;1.50;;;;;;;15.71;34.83;97015.81;5050289;28;20839;-70
2023/03/18 02:54:23;;;;;;;1.93;1.53;;;;;;;15.60;34.77;97014.47;5060107;28;20506;-70
2023/03/18 02:56:49;;;;;;;2.37;1.27;;;;;;;15.54;34.91;97009.97;5041115;28;20422;-70
2023/03/18 02:59:15;;;;;;;4.37;1.60;;;;;;;15.56;34.82;97013.25;5041109;28;20445;-71
2023/03/18 03:01:43;;;;;;;2.97;1.70;;;;;;;15.63;34.89;97013.28;5048564;28;20179;-69
2023/03/18 03:04:09;;;;;;;2.40;1.50;;;;;;;15.71;34.95;97021.09;5051658;28;20445;-70
2023/03/18 03:06:34;;;;;;;3.47;1.53;;;;;;;15.75;34.95;97017.03;5049390;28;20487;-71
2023/03/18 03:09:01;;;;;;;2.07;1.87;;;;;;;15.75;35.06;97027.63;5038915;28;20245;-71
2023/03/18 03:11:27;;;;;;;1.50;1.27;;;;;;;15.75;35.05;97038.19;5047995;28;20179;-71
2023/03/18 03:13:53;;;;;;;3.23;1.50;;;;;;;15.73;34.75;97031.47;5043125;28;20473;-71
2023/03/18 03:16:19;;;;;;;2.50;1.40;;;;;;;15.72;34.91;97028.00;5048782;28;20409;-71
2023/03/18 03:18:44;;;;;;;6.00;1.60;;;;;;;15.72;35.19;97032.47;5037045;28;20656;-71
2023/03/18 03:21:10;;;;;;;3.37;1.77;;;;;;;15.70;35.02;97034.47;5053981;28;20230;-72
2023/03/18 03:23:36;;;;;;;3.50;1.77;;;;;;;15.73;35.01;97036.75;5048031;28;20198;-72
2023/03/18 03:26:03;;;;;;;1.57;1.47;;;;;;;15.76;34.89;97031.09;5048090;28;20449;-71
2023/03/18 03:28:29;;;;;;;3.40;1.77;;;;;;;15.73;35.06;97034.94;5039647;28;20663;-74
2023/03/18 03:30:55;;;;;;;2.20;1.53;;;;;;;15.73;35.11;97029.66;5048828;28;20453;-70
2023/03/18 03:33:21;;;;;;;4.63;1.70;;;;;;;15.75;34.98;97034.72;5039188;28;20426;-70
2023/03/18 03:35:47;;;;;;;6.87;1.90;;;;;;;15.77;34.80;97038.00;5046858;28;20857;-71
2023/03/18 03:38:12;;;;;;;3.00;1.33;;;;;;;15.69;34.95;97046.88;5056922;28;20520;-70
2023/03/18 03:40:38;;;;;;;2.03;1.33;;;;;;;15.71;35.03;97046.69;5048598;28;20576;-70
2023/03/18 03:43:04;;;;;;;2.17;1.60;;;;;;;15.69;35.02;97048.72;5051722;28;20260;-71
2023/03/18 03:45:30;;;;;;;2.13;1.33;;;;;;;15.69;35.05;97054.81;5048133;28;20924;-71
2023/03/18 03:47:56;;;;;;;3.77;1.63;;;;;;;15.63;35.08;97042.34;5048985;28;20463;-71
2023/03/18 03:50:22;;;;;;;1.70;1.53;;;;;;;15.64;35.12;97049.25;5043488;28;20198;-71
2023/03/18 03:52:48;;;;;;;2.20;1.40;;;;;;;15.67;35.02;97051.53;5048109;28;20186;-70
2023/03/18 03:55:18;;;;;;;3.53;1.50;;;;;;;15.65;35.18;97053.53;5046276;28;20414;-71
2023/03/18 03:57:44;;;;;;;2.70;1.40;;;;;;;15.65;35.12;97049.09;5038877;28;20183;-70
2023/03/18 04:00:14;;;;;;;3.17;1.90;;;;;;;15.57;36.02;97043.09;5041232;28;20502;-71
2023/03/18 04:02:43;;;;;;;3.73;1.30;;;;;;;15.54;35.95;97040.81;5051670;28;20187;-70
2023/03/18 04:05:10;;;;;;;2.37;1.40;;;;;;;15.54;35.41;97046.94;5046929;28;20456;-70
2023/03/18 04:07:36;;;;;;;5.83;1.30;;;;;;;15.50;35.62;97045.66;5037631;28;20821;-71
2023/03/18 04:10:02;;;;;;;6.00;2.00;;;;;;;15.47;35.54;97038.94;5047870;28;20441;-70
2023/03/18 04:12:28;;;;;;;1.67;1.57;;;;;;;15.37;35.91;97038.44;5041136;28;20433;-72
2023/03/18 04:14:54;;;;;;;2.70;1.37;;;;;;;15.34;36.40;97044.91;5037350;28;20449;-71
2023/03/18 04:17:19;;;;;;;3.30;1.60;;;;;;;15.24;37.08;97052.31;5030429;28;20175;-70
2023/03/18 04:19:45;;;;;;;1.80;1.57;;;;;;;15.25;37.56;97053.13;5050643;28;20206;-70
2023/03/18 04:22:10;;;;;;;5.43;2.00;;;;;;;15.11;38.14;97052.16;5046579;28;20217;-69
2023/03/18 04:24:36;;;;;;;3.70;1.80;;;;;;;15.01;38.29;97055.91;5045148;28;20176;-70
2023/03/18 04:27:02;;;;;;;3.53;1.70;;;;;;;14.97;38.25;97057.25;5047247;28;20795;-70
2023/03/18 04:29:27;;;;;;;1.70;1.57;;;;;;;14.88;38.54;97053.91;5039130;28;20290;-70
2023/03/18 04:31:53;;;;;;;3.57;1.60;;;;;;;14.80;38.79;97050.56;5043783;28;20306;-70
2023/03/18 04:34:19;;;;;;;1.90;1.53;;;;;;;14.79;38.74;97055.00;5040236;28;20183;-71
2023/03/18 04:36:45;;;;;;;3.93;1.63;;;;;;;14.76;38.94;97055.34;5046604;28;20195;-71
2023/03/18 04:39:10;;;;;;;3.10;1.60;;;;;;;14.76;38.35;97052.72;5039988;28;20479;-70
2023/03/18 04:41:38;;;;;;;5.03;1.90;;;;;;;14.70;38.58;97054.25;5050997;28;20239;-71
2023/03/18 04:44:04;;;;;;;2.60;1.40;;;;;;;14.64;38.90;97056.78;5051348;28;20203;-72
2023/03/18 04:46:31;;;;;;;2.67;1.50;;;;;;;14.59;38.91;97060.81;5055693;28;20464;-70
2023/03/18 04:48:57;;;;;;;1.60;1.40;;;;;;;14.55;39.34;97071.91;5055732;28;20655;-72
2023/03/18 04:51:24;;;;;;;2.80;1.80;;;;;;;14.50;39.32;97068.97;5040195;28;20423;-71
2023/03/18 04:53:50;;;;;;;3.17;1.77;;;;;;;14.36;40.16;97067.97;5035678;28;20437;-72
2023/03/18 04:56:16;;;;;;;3.50;1.50;;;;;;;14.30;40.10;97066.88;5037051;28;20410;-71
2023/03/18 04:58:42;;;;;;;1.93;1.37;;;;;;;14.28;40.25;97067.03;5041415;28;20457;-71
2023/03/18 05:01:08;;;;;;;3.23;1.67;;;;;;;14.28;40.32;97072.28;5046199;28;20477;-69
2023/03/18 05:03:35;;;;;;;3.73;1.97;;;;;;;14.25;40.27;97070.00;5041490;28;20182;-71
2023/03/18 05:06:01;;;;;;;2.33;2.03;;;;;;;14.15;40.66;97072.09;5041973;28;20552;-70
2023/03/18 05:08:26;;;;;;;2.77;2.27;;;;;;;14.11;40.45;97068.19;5036604;28;20426;-72
2023/03/18 05:10:52;;;;;;;2.77;1.90;;;;;;;13.98;40.71;97068.78;5047393;28;20441;-71
2023/03/18 05:13:18;;;;;;;3.03;2.00;;;;;;;13.98;40.65;97064.34;5061134;28;20214;-71
2023/03/18 05:15:43;;;;;;;3.40;1.57;;;;;;;14.04;40.21;97073.34;5043699;28;20190;-72
2023/03/18 05:18:09;;;;;;;3.40;1.90;;;;;;;13.95;40.83;97069.97;5041496;28;20183;-71
2023/03/18 05:20:34;;;;;;;5.80;1.90;;;;;;;13.83;40.92;97074.00;5042027;28;20285;-71
2023/03/18 05:23:00;;;;;;;4.47;2.33;;;;;;;13.79;41.29;97075.34;5048561;28;20214;-72
2023/03/18 05:25:26;;;;;;;5.63;2.00;;;;;;;13.78;41.55;97078.97;5046641;28;20236;-72
2023/03/18 05:27:53;;;;;;;2.80;2.23;;;;;;;13.78;41.34;97079.81;5062550;28;20182;-70
2023/03/18 05:30:19;;;;;;;3.60;2.27;;;;;;;13.75;41.28;97081.94;5045376;28;20476;-72
2023/03/18 05:32:45;;;;;;;2.57;1.57;;;;;;;13.74;41.34;97085.56;5051524;28;20429;-72
2023/03/18 05:35:10;;;;;;;2.40;2.20;;;;;;;13.62;41.71;97085.97;5054260;28;20414;-70
2023/03/18 05:37:36;;;;;;;2.47;1.97;;;;;;;13.61;41.75;97086.16;5059141;28;20659;-70
2023/03/18 05:40:03;;;;;;;2.27;1.90;;;;;;;13.61;41.52;97080.91;5048939;28;20195;-71
2023/03/18 05:42:29;;;;;;;4.03;2.00;;;;;;;13.52;41.87;97083.59;5046256;28;20190;-69
2023/03/18 05:44:55;;;;;;;5.17;3.10;;;;;;;13.50;41.81;97082.09;5045901;28;20934;-72
2023/03/18 05:47:21;;;;;;;4.70;2.40;;;;;;;13.45;42.26;97081.81;5042792;28;20203;-71
2023/03/18 05:49:47;;;;;;;3.80;2.47;;;;;;;13.43;42.29;97079.34;5050142;28;21037;-71
2023/03/18 05:52:12;;;;;;;4.67;2.93;;;;;;;13.42;42.26;97084.78;5057321;28;20193;-70
2023/03/18 05:54:38;;;;;;;6.70;2.47;;;;;;;13.35;42.39;97085.47;5044835;28;20183;-73
2023/03/18 05:57:03;;;;;;;5.27;2.40;;;;;;;13.29;42.55;97085.34;5043031;28;20206;-68
2023/03/18 05:59:30;;;;;;;7.03;1.73;;;;;;;13.30;42.37;97082.53;5051405;28;20281;-72
2023/03/18 06:01:56;;;;;;;6.73;2.27;;;;;;;13.25;42.69;97084.03;5049986;28;20187;-70
2023/03/18 06:04:21;;;;;;;4.50;1.60;;;;;;;13.30;42.61;97081.69;5053014;28;20429;-71
2023/03/18 06:06:48;;;;;;;3.30;2.07;;;;;;;13.27;42.73;97077.59;5051829;28;20211;-70
2023/03/18 06:09:14;;;;;;;2.27;1.87;;;;;;;13.28;42.77;97084.50;5058921;28;20190;-71
2023/03/18 06:11:39;;;;;;;2.60;2.13;;;;;;;13.29;43.00;97085.34;5049800;28;20964;-70
2023/03/18 06:14:06;;;;;;;5.10;2.03;;;;;;;13.27;42.88;97084.69;5043248;28;21150;-68
2023/03/18 06:16:32;;;;;;;5.03;2.37;;;;;;;13.23;42.75;97086.84;5050322;28;20185;-69
2023/03/18 06:18:58;;;;;;;3.33;1.80;;;;;;;13.19;42.75;97088.19;5053537;28;20512;-70
2023/03/18 06:21:24;;;;;;;2.53;1.80;;;;;;;13.20;42.89;97089.81;5043138;28;20572;-71
2023/03/18 06:23:50;;;;;;;3.20;2.17;;;;;;;13.16;42.89;97091.97;5056071;28;20436;-71
2023/03/18 06:26:15;;;;;;;2.70;2.27;;;;;;;13.19;43.08;97094.25;5043717;28;20218;-73
2023/03/18 06:28:41;;;;;;;6.60;2.43;;;;;;;13.26;43.02;97096.19;5055489;28;20460;-71
2023/03/18 06:31:07;;;;;;;24.10;15.00;;;;;;;13.40;44.01;97089.41;5055293;28;20213;-69
2023/03/18 06:33:32;;;;;;;23.50;14.60;;;;;;;13.52;44.20;97096.75;5038387;28;20604;-70
2023/03/18 06:35:59;;;;;;;12.30;9.47;;;;;;;13.70;43.85;97094.84;5037891;28;20557;-71
2023/03/18 06:38:26;;;;;;;17.30;8.87;;;;;;;13.85;43.28;97093.09;5040994;28;20237;-71
2023/03/18 06:40:51;;;;;;;11.87;6.73;;;;;;;13.98;43.10;97095.13;5054310;28;20445;-70
2023/03/18 06:43:17;;;;;;;11.13;6.20;;;;;;;14.08;42.99;97092.25;5047190;28;20483;-70
2023/03/18 06:45:42;;;;;;;8.00;5.57;;;;;;;14.19;42.56;97094.47;5053287;28;20606;-70
2023/03/18 06:48:09;;;;;;;17.03;4.80;;;;;;;14.27;41.97;97083.84;5035676;28;20222;-71
2023/03/18 06:50:35;;;;;;;5.53;3.80;;;;;;;14.34;41.93;97091.84;5045126;28;20202;-72
2023/03/18 06:53:01;;;;;;;5.27;3.73;;;;;;;14.42;42.18;97088.31;5046749;28;20447;-72
2023/03/18 06:55:27;;;;;;;10.80;3.90;;;;;;;14.48;41.78;97089.41;5042581;28;20919;-71
2023/03/18 06:57:53;;;;;;;5.90;3.83;;;;;;;14.56;41.82;97098.06;5036241;28;20269;-70
2023/03/18 07:00:20;;;;;;;6.90;3.70;;;;;;;14.65;41.37;97090.91;5043329;28;20206;-71
2023/03/18 07:02:46;;;;;;;8.53;4.30;;;;;;;14.83;41.32;97087.94;5044512;28;20664;-71
2023/03/18 07:05:11;;;;;;;11.30;6.70;;;;;;;14.96;40.79;97089.13;5042965;28;20536;-72
2023/03/18 07:07:38;;;;;;;11.37;5.80;;;;;;;15.16;40.49;97095.44;5032497;28;20301;-72
2023/03/18 07:10:04;;;;;;;11.97;5.50;;;;;;;15.39;40.28;97088.41;5045329;28;20214;-72
2023/03/18 07:12:30;;;;;;;7.50;4.73;;;;;;;15.56;39.59;97096.94;5043414;28;20425;-70
2023/03/18 07:14:56;;;;;;;9.07;4.87;;;;;;;15.75;39.47;97096.31;5047421;28;20438;-72
2023/03/18 07:17:21;;;;;;;12.53;4.30;;;;;;;15.92;38.83;97090.81;5052763;28;20183;-72
2023/03/18 07:19:47;;;;;;;7.13;4.20;;;;;;;16.01;38.54;97097.59;5038641;28;20211;-69
2023/03/18 07:22:16;;;;;;;11.20;7.60;;;;;;;16.15;38.48;97095.91;5039386;28;20245;-70
2023/03/18 07:24:42;;;;;;;8.20;5.23;;;;;;;16.32;38.42;97106.22;5036524;28;20180;-70
2023/03/18 07:27:09;;;;;;;7.23;3.70;;;;;;;16.41;38.18;97100.56;5032579;28;20469;-72
2023/03/18 07:29:34;;;;;;;11.30;3.83;;;;;;;16.56;38.49;97100.50;5035475;28;20475;-70
2023/03/18 07:32:00;;;;;;;5.80;3.73;;;;;;;16.71;37.69;97105.69;5039395;28;20425;-70
2023/03/18 07:34:26;;;;;;;9.00;3.60;;;;;;;16.86;37.17;97108.19;5036323;28;20652;-70
2023/03/18 07:36:52;;;;;;;9.70;3.20;;;;;;;17.01;36.90;97109.94;5031895;28;20458;-71
2023/03/18 07:39:18;;;;;;;4.50;2.40;;;;;;;17.17;36.18;97104.31;5033218;28;20480;-71
2023/03/18 07:41:43;;;;;;;3.30;2.10;;;;;;;17.27;34.81;97111.88;5041428;28;20241;-71
2023/03/18 07:44:09;;;;;;;7.57;2.70;;;;;;;17.40;34.84;97108.50;5038854;28;20263;-71
2023/03/18 07:46:34;;;;;;;3.27;1.83;;;;;;;17.53;34.37;97113.00;5039751;28;20672;-71
2023/03/18 07:48:59;;;;;;;4.77;2.57;;;;;;;17.62;34.64;97111.00;5037993;28;20271;-71
2023/03/18 07:51:25;;;;;;;4.33;2.33;;;;;;;17.71;34.00;97116.94;5041453;28;20214;-71
2023/03/18 07:53:50;;;;;;;3.63;2.57;;;;;;;17.83;33.92;97106.56;5048130;28;20232;-71
2023/03/18 07:56:16;;;;;;;6.83;2.33;;;;;;;17.95;33.70;97115.56;5036397;28;20184;-72
2023/03/18 07:58:42;;;;;;;6.07;2.50;;;;;;;18.06;33.78;97116.81;5028644;28;20267;-71
2023/03/18 08:01:08;;;;;;;7.93;2.00;;;;;;;18.17;33.62;97112.75;5037540;28;20203;-70
2023/03/18 08:03:34;;;;;;;3.80;1.97;;;;;;;18.23;33.07;97118.06;5032751;28;20221;-72
2023/03/18 08:05:59;;;;;;;3.63;1.70;;;;;;;18.39;32.98;97119.50;5035022;28;20454;-70
2023/03/18 08:08:25;;;;;;;5.07;2.00;;;;;;;18.57;32.35;97108.25;5039589;28;20425;-71
2023/03/18 08:10:51;;;;;;;4.67;1.70;;;;;;;18.72;32.01;97117.84;5041377;28;20238;-72
2023/03/18 08:13:16;;;;;;;3.97;1.63;;;;;;;18.93;31.78;97116.78;5045353;28;20678;-69
2023/03/18 08:15:42;;;;;;;5.10;1.98;;;;;;;19.05;30.40;97116.97;5038897;28;20408;-70
2023/03/18 08:18:07;;;;;;;3.90;2.00;;;;;;;19.36;30.70;97115.44;5041006;28;20189;-70
2023/03/18 08:20:33;;;;;;;5.97;1.37;;;;;;;19.65;28.73;97118.59;5040214;28;20194;-70
2023/03/18 08:22:59;;;;;;;2.33;1.23;;;;;;;19.91;27.76;97111.53;5031979;28;20206;-68
2023/03/18 08:25:24;;;;;;;5.93;3.73;;;;;;;20.19;27.54;97111.13;5032821;28;20756;-70
2023/03/18 08:27:51;;;;;;;3.20;1.40;;;;;;;20.51;27.24;97111.06;5042005;28;20620;-71
2023/03/18 08:30:17;;;;;;;4.03;1.50;;;;;;;20.75;27.04;97113.13;5038838;28;20262;-70
2023/03/18 08:32:42;;;;;;;6.17;1.37;;;;;;;21.04;26.57;97113.47;5043656;28;20988;-71
2023/03/18 08:35:10;;;;;;;2.13;1.50;;;;;;;21.33;25.85;97112.69;5034600;28;20450;-71
2023/03/18 08:37:35;;;;;;;3.07;1.63;;;;;;;21.61;25.39;97114.03;5031403;28;20171;-69
2023/03/18 08:40:01;;;;;;;2.83;1.37;;;;;;;21.70;24.72;97113.69;5037320;28;20743;-69
2023/03/18 08:42:26;;;;;;;2.50;1.40;;;;;;;21.84;25.10;97109.81;5037291;28;20644;-69
2023/03/18 08:44:52;;;;;;;3.40;1.20;;;;;;;22.11;24.27;97112.09;5040668;28;20247;-69
2023/03/18 08:47:17;;;;;;;5.00;1.57;;;;;;;22.32;24.27;97107.25;5046737;28;20200;-70
2023/03/18 08:49:43;;;;;;;4.27;1.47;;;;;;;22.55;24.04;97112.66;5028852;28;20922;-69
2023/03/18 08:52:09;;;;;;;2.47;1.50;;;;;;;22.82;23.64;97104.16;5037152;28;20186;-70
2023/03/18 08:54:34;;;;;;;3.37;1.40;;;;;;;23.01;23.96;97104.81;5035725;28;20238;-70
2023/03/18 08:57:00;;;;;;;3.23;1.30;;;;;;;23.09;23.18;97095.63;5030771;28;20784;-71
2023/03/18 08:59:25;;;;;;;3.60;1.37;;;;;;;23.39;23.42;97099.19;5045252;28;20239;-72
2023/03/18 09:01:52;;;;;;;5.13;2.03;;;;;;;23.58;23.30;97089.13;5037386;28;20176;-72
2023/03/18 09:04:18;;;;;;;3.60;1.40;;;;;;;23.79;22.88;97090.31;5042846;28;20188;-71
2023/03/18 09:06:44;;;;;;;1.83;1.10;;;;;;;23.95;22.62;97082.56;5051437;28;20499;-70
2023/03/18 09:09:10;;;;;;;2.07;1.30;;;;;;;24.19;22.61;97093.97;5035302;28;20450;-71
2023/03/18 09:11:36;;;;;;;6.43;1.87;;;;;;;24.43;22.19;97088.44;5041587;28;20183;-71
2023/03/18 09:14:01;;;;;;;3.60;2.10;;;;;;;24.68;21.97;97077.28;5046902;28;20476;-71
2023/03/18 09:16:27;;;;;;;2.10;1.40;;;;;;;24.83;21.53;97079.38;5043636;28;20423;-70
2023/03/18 09:18:53;;;;;;;3.40;2.00;;;;;;;25.07;21.42;97084.53;5048983;28;20190;-71
2023/03/18 09:21:19;;;;;;;2.03;1.20;;;;;;;25.13;21.36;97087.03;5047301;28;20195;-73
2023/03/18 09:23:44;;;;;;;2.13;1.13;;;;;;;25.46;20.92;97081.78;5035068;28;20326;-71
2023/03/18 09:26:10;;;;;;;2.80;1.30;;;;;;;25.56;21.15;97079.22;5035278;28;20208;-71
2023/03/18 09:28:36;;;;;;;4.60;1.73;;;;;;;25.82;21.06;97079.50;5043865;28;20265;-72
2023/03/18 09:31:02;;;;;;;6.10;1.67;;;;;;;25.88;21.32;97074.97;5036876;28;20244;-70
2023/03/18 09:33:28;;;;;;;3.60;1.40;;;;;;;25.85;21.02;97072.78;5047000;28;20179;-71
2023/03/18 09:35:53;;;;;;;1.47;1.20;;;;;;;25.98;20.96;97068.88;5034051;28;20421;-72
2023/03/18 09:38:19;;;;;;;17.23;7.00;;;;;;;25.48;22.24;97079.66;5036199;28;20184;-72
2023/03/18 09:40:59;;;;;;;10.73;3.80;;;;;;;25.44;21.94;97078.56;5040484;28;20253;-73
2023/03/18 09:44:02;;;;;;;9.60;5.27;;;;;;;25.52;23.35;97067.38;5040273;28;20463;-69
2023/03/18 09:46:52;;;;;;;6.57;3.43;;;;;;;25.48;21.56;97076.19;5039943;28;20800;-70
2023/03/18 09:49:35;;;;;;;7.10;2.57;;;;;;;25.27;22.09;97078.59;5044344;28;20409;-69
2023/03/18 09:52:22;;;;;;;5.70;2.90;;;;;;;25.08;22.13;97080.78;5040447;28;20418;-71
2023/03/18 09:55:21;;;;;;;5.50;2.80;;;;;;;25.24;22.42;97079.09;5042232;28;20440;-72
2023/03/18 09:57:49;;;;;;;9.93;2.17;;;;;;;25.44;22.07;97062.47;5034452;28;20834;-71
2023/03/18 10:00:28;;;;;;;3.30;1.67;;;;;;;25.68;21.37;97072.91;5036147;28;20434;-70
2023/03/18 10:03:00;;;;;;;3.30;1.57;;;;;;;25.74;21.54;97061.97;5038043;28;20419;-75
2023/03/18 10:05:32;;;;;;;3.00;1.67;;;;;;;25.98;20.87;97061.63;5034067;28;20415;-71
2023/03/18 10:08:03;;;;;;;1.30;1.10;;;;;;;25.88;20.19;97056.97;5036867;28;20939;-71
2023/03/18 10:10:36;;;;;;;2.43;1.13;;;;;;;25.87;20.43;97060.72;5033838;28;20443;-71
2023/03/18 10:13:20;;;;;;;2.93;1.43;;;;;;;25.30;20.96;97062.84;5036308;28;20477;-70
2023/03/18 10:15:52;;;;;;;2.97;1.70;;;;;;;25.72;21.24;97063.25;5035501;28;20430;-71
2023/03/18 10:18:31;;;;;;;2.23;1.40;;;;;;;25.82;20.33;97065.25;5044581;28;20446;-71
2023/03/18 10:21:15;;;;;;;4.20;1.37;;;;;;;25.62;19.84;97058.63;5038224;28;20966;-73
2023/03/18 10:24:02;;;;;;;1.63;1.30;;;;;;;25.78;20.50;97059.59;5030135;28;20421;-73
2023/03/18 10:26:39;;;;;;;2.40;1.00;;;;;;;25.86;20.00;97053.75;5032935;28;20458;-72
2023/03/18 10:29:28;;;;;;;2.70;1.20;;;;;;;25.32;19.86;97065.25;5037194;28;20425;-71
2023/03/18 10:32:02;;;;;;;6.87;1.50;;;;;;;24.74;21.59;97056.75;5044678;28;20510;-70
2023/03/18 10:34:43;;;;;;;2.67;1.03;;;;;;;25.27;20.52;97052.59;5043152;28;20421;-71
2023/03/18 10:37:30;;;;;;;7.40;1.30;;;;;;;25.09;20.86;97059.09;5034052;28;20426;-70
2023/03/18 10:39:58;;;;;;;2.10;1.20;;;;;;;24.89;20.88;97065.00;5039697;28;20457;-73
2023/03/18 10:42:29;;;;;;;1.77;1.20;;;;;;;24.86;20.45;97068.16;5039788;28;20434;-71
2023/03/18 10:45:18;;;;;;;2.60;1.10;;;;;;;25.26;21.51;97061.69;5048896;28;20439;-71
2023/03/18 10:47:49;;;;;;;2.00;0.97;;;;;;;25.61;21.05;97057.81;5039666;28;20436;-72
2023/03/18 10:50:27;;;;;;;2.70;1.17;;;;;;;25.59;20.82;97051.88;5050718;28;20450;-70
2023/03/18 10:53:00;;;;;;;3.37;1.13;;;;;;;24.27;21.12;97061.44;5040562;28;20441;-73
2023/03/18 10:55:31;;;;;;;4.23;1.13;;;;;;;24.68;21.54;97045.97;5037003;28;20430;-71
2023/03/18 10:57:57;;;;;;;3.83;1.20;;;;;;;24.78;21.17;97047.19;5036813;28;20908;-72
2023/03/18 11:00:31;;;;;;;2.67;1.30;;;;;;;24.86;21.11;97045.94;5036239;28;20818;-72
2023/03/18 11:02:57;;;;;;;6.17;1.33;;;;;;;24.65;20.43;97041.09;5043835;28;20512;-72
2023/03/18 11:05:28;;;;;;;2.50;1.23;;;;;;;24.68;19.98;97039.78;5033495;28;21116;-72
2023/03/18 11:08:06;;;;;;;3.83;1.20;;;;;;;25.22;21.00;97035.63;5033040;28;20270;-73
2023/03/18 11:10:39;;;;;;;6.80;1.20;;;;;;;25.70;20.73;97033.22;5028543;28;20822;-71
2023/03/18 11:13:05;;;;;;;2.43;1.40;;;;;;;26.26;20.43;97035.56;5039720;28;20422;-71
2023/03/18 11:15:41;;;;;;;3.35;1.10;;;;;;;26.26;18.01;97035.56;5037434;28;21050;-72
2023/03/18 11:18:14;;;;;;;1.93;0.93;;;;;;;26.33;17.78;97033.47;5037020;28;20591;-72
2023/03/18 11:20:46;;;;;;;2.03;1.03;;;;;;;26.13;17.57;97030.66;5035599;28;20859;-72
2023/03/18 11:23:47;;;;;;;2.13;1.10;;;;;;;26.13;17.34;97026.06;5047813;28;20513;-71
2023/03/18 11:26:27;;;;;;;1.67;0.97;;;;;;;26.15;17.60;97021.25;5037088;28;20447;-73
2023/03/18 11:28:55;;;;;;;11.83;7.60;;;;;;;26.26;17.43;97024.00;5036441;28;20432;-73
2023/03/18 11:31:20;;;;;;;3.67;1.33;;;;;;;26.50;18.03;97029.81;5035436;28;20445;-72
2023/03/18 11:33:46;;;;;;;2.50;1.27;;;;;;;26.53;17.62;97018.53;5040406;28;20934;-73
2023/03/18 11:36:22;;;;;;;2.17;1.30;;;;;;;26.91;17.67;97019.28;5039186;28;20611;-72